createdAt,value
2018-01-29T00:00:44.977Z,9.50
2018-01-29T00:03:12.810Z,9.50
2018-01-29T00:05:41.221Z,9.50
2018-01-29T00:08:08.986Z,9.40
2018-01-29T00:10:36.753Z,9.50
2018-01-29T00:13:04.620Z,9.50
2018-01-29T00:15:32.523Z,9.60
2018-01-29T00:18:01.070Z,9.50
2018-01-29T00:20:29.392Z,9.50
2018-01-29T00:22:57.866Z,9.50
2018-01-29T00:25:26.405Z,9.50
2018-01-29T00:27:54.274Z,9.50
2018-01-29T00:30:21.855Z,9.40
2018-01-29T00:32:49.557Z,9.50
2018-01-29T00:35:17.362Z,9.50
2018-01-29T00:37:44.969Z,9.50
2018-01-29T00:40:13.607Z,9.50
2018-01-29T00:42:42.130Z,9.50
2018-01-29T00:45:10.672Z,9.50
2018-01-29T00:47:38.432Z,9.50
2018-01-29T00:50:06.217Z,9.50
2018-01-29T00:52:33.997Z,9.50
2018-01-29T00:55:01.831Z,9.50
2018-01-29T00:57:29.378Z,9.50
2018-01-29T00:59:56.909Z,9.50
2018-01-29T01:02:24.442Z,9.50
2018-01-29T01:04:52.830Z,9.50
2018-01-29T01:07:21.150Z,9.50
2018-01-29T01:09:48.820Z,9.50
2018-01-29T01:12:16.430Z,9.50
2018-01-29T01:14:44.966Z,9.50
2018-01-29T01:17:12.506Z,9.50
2018-01-29T01:19:40.026Z,9.50
2018-01-29T01:22:08.342Z,9.50
2018-01-29T01:24:36.125Z,9.50
2018-01-29T01:27:03.705Z,9.50
2018-01-29T01:29:31.547Z,9.50
2018-01-29T01:31:59.208Z,9.50
2018-01-29T01:34:26.770Z,9.50
2018-01-29T01:36:54.434Z,9.50
2018-01-29T01:39:22.296Z,9.50
2018-01-29T01:41:49.957Z,9.50
2018-01-29T01:44:17.490Z,9.60
2018-01-29T01:46:45.010Z,9.60
2018-01-29T01:49:12.846Z,9.50
2018-01-29T01:51:40.734Z,9.50
2018-01-29T01:54:08.479Z,9.50
2018-01-29T01:56:36.182Z,9.50
2018-01-29T01:59:04.715Z,9.50
2018-01-29T02:01:32.690Z,9.50
2018-01-29T02:04:00.654Z,9.60
2018-01-29T02:06:28.417Z,9.60
2018-01-29T02:08:56.118Z,9.50
2018-01-29T02:11:24.425Z,9.50
2018-01-29T02:13:52.769Z,9.50
2018-01-29T02:16:21.082Z,9.50
2018-01-29T02:18:48.710Z,9.50
2018-01-29T02:21:16.541Z,9.60
2018-01-29T02:23:44.404Z,9.50
2018-01-29T02:26:12.107Z,9.50
2018-01-29T02:28:40.478Z,9.50
2018-01-29T02:31:09.027Z,9.50
2018-01-29T02:33:42.077Z,9.50
2018-01-29T02:36:09.658Z,9.50
2018-01-29T02:38:37.443Z,9.50
2018-01-29T02:41:05.150Z,9.60
2018-01-29T02:43:33.684Z,9.50
2018-01-29T02:46:01.274Z,9.50
2018-01-29T02:48:28.857Z,9.50
2018-01-29T02:50:56.526Z,9.50
2018-01-29T02:53:24.538Z,9.50
2018-01-29T02:55:52.402Z,9.50
2018-01-29T02:58:20.170Z,9.60
2018-01-29T03:00:47.890Z,9.60
2018-01-29T03:03:15.574Z,9.60
2018-01-29T03:05:43.060Z,9.60
2018-01-29T03:08:10.742Z,9.50
2018-01-29T03:10:38.682Z,9.60
2018-01-29T03:13:06.235Z,9.50
2018-01-29T03:15:33.842Z,9.50
2018-01-29T03:18:02.321Z,9.50
2018-01-29T03:20:30.861Z,9.50
2018-01-29T03:22:58.625Z,9.50
2018-01-29T03:25:26.393Z,9.50
2018-01-29T03:27:54.259Z,9.50
2018-01-29T03:30:21.921Z,9.50
2018-01-29T03:32:49.947Z,9.50
2018-01-29T03:35:17.725Z,9.50
2018-01-29T03:37:45.370Z,9.50
2018-01-29T03:40:13.185Z,9.50
2018-01-29T03:42:41.051Z,9.60
2018-01-29T03:45:08.738Z,9.60
2018-01-29T03:47:36.314Z,9.60
2018-01-29T03:50:04.955Z,9.60
2018-01-29T03:52:32.678Z,9.50
2018-01-29T03:55:00.309Z,9.60
2018-01-29T03:57:28.144Z,9.50
2018-01-29T03:59:55.754Z,9.50
2018-01-29T04:02:24.283Z,9.50
2018-01-29T04:04:51.950Z,9.50
2018-01-29T04:07:19.669Z,9.50
2018-01-29T04:09:47.413Z,9.50
2018-01-29T04:12:16.019Z,9.50
2018-01-29T04:14:43.721Z,9.50
2018-01-29T04:17:11.487Z,9.50
2018-01-29T04:19:39.374Z,9.60
2018-01-29T04:22:07.074Z,9.60
2018-01-29T04:24:34.730Z,9.60
2018-01-29T04:27:02.537Z,9.60
2018-01-29T04:29:30.408Z,9.50
2018-01-29T04:31:58.138Z,9.60
2018-01-29T04:34:25.762Z,9.60
2018-01-29T04:36:53.594Z,9.60
2018-01-29T04:39:21.301Z,9.60
2018-01-29T04:41:49.782Z,9.60
2018-01-29T04:44:18.323Z,9.60
2018-01-29T04:46:46.186Z,9.60
2018-01-29T04:49:13.849Z,9.60
2018-01-29T04:51:41.510Z,9.60
2018-01-29T04:54:09.217Z,9.60
2018-01-29T04:56:37.962Z,9.60
2018-01-29T04:59:05.624Z,9.60
2018-01-29T05:01:33.345Z,9.60
2018-01-29T05:04:01.193Z,9.60
2018-01-29T05:06:29.531Z,9.60
2018-01-29T05:08:57.441Z,9.60
2018-01-29T05:11:25.121Z,9.70
2018-01-29T05:13:53.642Z,9.70
2018-01-29T05:16:21.505Z,9.60
2018-01-29T05:18:49.072Z,9.60
2018-01-29T05:21:17.033Z,9.60
2018-01-29T05:23:44.797Z,9.60
2018-01-29T05:26:12.565Z,9.70
2018-01-29T05:28:40.121Z,9.70
2018-01-29T05:31:07.690Z,9.70
2018-01-29T05:33:35.449Z,9.70
2018-01-29T05:36:19.089Z,9.70
2018-01-29T05:38:48.233Z,9.70
2018-01-29T05:41:15.878Z,9.70
2018-01-29T05:43:44.219Z,9.70
2018-01-29T05:46:11.984Z,9.70
2018-01-29T05:48:39.846Z,9.70
2018-01-29T05:51:07.409Z,9.70
2018-01-29T05:53:35.174Z,9.70
2018-01-29T05:56:02.941Z,9.70
2018-01-29T05:58:30.701Z,9.70
2018-01-29T06:00:58.359Z,9.70
2018-01-29T06:03:26.021Z,9.70
2018-01-29T06:05:53.725Z,9.70
2018-01-29T06:08:22.230Z,9.70
2018-01-29T06:10:49.927Z,9.70
2018-01-29T06:13:17.694Z,9.70
2018-01-29T06:15:45.459Z,9.70
2018-01-29T06:18:13.222Z,9.70
2018-01-29T06:20:40.925Z,9.60
2018-01-29T06:23:09.227Z,9.70
2018-01-29T06:25:36.810Z,9.70
2018-01-29T06:28:04.613Z,9.70
2018-01-29T06:30:32.200Z,9.70
2018-01-29T06:33:00.622Z,9.70
2018-01-29T06:35:28.554Z,9.70
2018-01-29T06:37:56.185Z,9.70
2018-01-29T06:40:24.018Z,9.70
2018-01-29T06:42:52.088Z,9.80
2018-01-29T06:45:19.954Z,9.70
2018-01-29T06:47:47.719Z,9.70
2018-01-29T06:50:15.483Z,9.70
2018-01-29T06:52:43.193Z,9.70
2018-01-29T06:55:11.520Z,9.80
2018-01-29T06:57:39.226Z,9.70
2018-01-29T07:00:07.914Z,9.80
2018-01-29T07:02:36.457Z,9.80
2018-01-29T07:05:04.222Z,9.80
2018-01-29T07:07:31.793Z,9.80
2018-01-29T07:09:59.442Z,9.80
2018-01-29T07:12:27.456Z,9.80
2018-01-29T07:14:55.888Z,9.80
2018-01-29T07:17:23.756Z,9.80
2018-01-29T07:19:51.482Z,9.80
2018-01-29T07:22:19.093Z,9.80
2018-01-29T07:24:46.846Z,9.80
2018-01-29T07:27:14.460Z,9.80
2018-01-29T07:29:42.098Z,9.80
2018-01-29T07:32:09.827Z,9.80
2018-01-29T07:34:37.533Z,9.80
2018-01-29T07:37:05.969Z,9.80
2018-01-29T07:39:33.530Z,9.80
2018-01-29T07:42:01.095Z,9.80
2018-01-29T07:44:28.960Z,9.80
2018-01-29T07:46:56.662Z,9.80
2018-01-29T07:49:25.146Z,9.80
2018-01-29T07:51:52.738Z,9.80
2018-01-29T07:54:20.482Z,9.80
2018-01-29T07:56:48.030Z,9.90
2018-01-29T07:59:16.463Z,9.90
2018-01-29T08:01:44.228Z,9.90
2018-01-29T08:04:11.854Z,9.90
2018-01-29T08:06:39.590Z,9.90
2018-01-29T08:09:08.102Z,9.90
2018-01-29T08:11:35.793Z,9.90
2018-01-29T08:14:03.385Z,9.90
2018-01-29T08:16:32.410Z,9.90
2018-01-29T08:19:00.010Z,9.90
2018-01-29T08:21:28.384Z,9.90
2018-01-29T08:23:56.046Z,9.80
2018-01-29T08:26:24.120Z,9.90
2018-01-29T08:28:51.885Z,9.90
2018-01-29T08:31:19.547Z,10.00
2018-01-29T08:33:47.069Z,10.00
2018-01-29T08:36:14.870Z,9.90
2018-01-29T08:38:42.570Z,10.00
2018-01-29T08:41:11.008Z,10.00
2018-01-29T08:43:38.776Z,9.90
2018-01-29T08:46:06.639Z,9.90
2018-01-29T08:48:34.301Z,10.00
2018-01-29T08:51:02.065Z,10.00
2018-01-29T08:53:29.828Z,10.10
2018-01-29T08:55:57.438Z,10.10
2018-01-29T08:58:24.938Z,10.00
2018-01-29T09:00:52.678Z,10.00
2018-01-29T09:03:20.278Z,10.10
2018-01-29T09:05:48.137Z,10.10
2018-01-29T09:08:15.842Z,10.10
2018-01-29T09:10:44.279Z,10.10
2018-01-29T09:13:11.986Z,10.10
2018-01-29T09:15:40.426Z,10.10
2018-01-29T09:18:08.150Z,10.10
2018-01-29T09:20:36.018Z,10.20
2018-01-29T09:23:03.923Z,10.20
2018-01-29T09:25:31.550Z,10.20
2018-01-29T09:27:59.145Z,10.20
2018-01-29T09:30:27.108Z,10.20
2018-01-29T09:32:54.770Z,10.20
2018-01-29T09:35:22.302Z,10.30
2018-01-29T09:37:49.918Z,10.30
2018-01-29T09:40:17.755Z,10.30
2018-01-29T09:42:45.621Z,10.30
2018-01-29T09:45:13.178Z,10.40
2018-01-29T09:47:40.945Z,10.40
2018-01-29T09:50:08.677Z,10.40
2018-01-29T09:52:36.238Z,10.40
2018-01-29T09:55:04.138Z,10.40
2018-01-29T09:57:31.845Z,10.40
2018-01-29T10:00:00.346Z,10.50
2018-01-29T10:02:27.974Z,10.50
2018-01-29T10:04:55.911Z,10.50
2018-01-29T10:07:23.981Z,10.50
2018-01-29T10:09:51.658Z,10.60
2018-01-29T10:12:19.266Z,10.60
2018-01-29T10:14:47.070Z,10.60
2018-01-29T10:17:14.683Z,10.60
2018-01-29T10:19:43.315Z,10.60
2018-01-29T10:22:10.882Z,10.50
2018-01-29T10:24:38.442Z,10.50
2018-01-29T10:27:06.158Z,10.50
2018-01-29T10:29:33.711Z,10.50
2018-01-29T10:32:01.414Z,10.50
2018-01-29T10:34:29.117Z,10.50
2018-01-29T10:36:57.659Z,10.50
2018-01-29T10:39:25.261Z,10.50
2018-01-29T10:41:53.089Z,10.50
2018-01-29T10:44:20.720Z,10.60
2018-01-29T10:46:48.617Z,10.60
2018-01-29T10:49:16.381Z,10.60
2018-01-29T10:51:44.106Z,10.60
2018-01-29T10:54:11.905Z,10.60
2018-01-29T10:56:39.482Z,10.60
2018-01-29T10:59:07.331Z,10.60
2018-01-29T11:01:40.936Z,10.50
2018-01-29T11:04:08.643Z,10.60
2018-01-29T11:06:37.113Z,10.60
2018-01-29T11:09:05.047Z,10.60
2018-01-29T11:11:32.706Z,10.60
2018-01-29T11:14:00.472Z,10.60
2018-01-29T11:16:28.338Z,10.60
2018-01-29T11:18:56.304Z,10.60
2018-01-29T11:21:23.850Z,10.60
2018-01-29T11:23:51.566Z,10.60
2018-01-29T11:26:19.926Z,10.60
2018-01-29T11:28:47.629Z,10.60
2018-01-29T11:31:15.434Z,10.60
2018-01-29T11:33:43.506Z,10.60
2018-01-29T11:36:11.215Z,10.60
2018-01-29T11:38:39.853Z,10.70
2018-01-29T11:41:07.390Z,10.60
2018-01-29T11:43:34.986Z,10.70
2018-01-29T11:46:02.835Z,10.60
2018-01-29T11:48:30.742Z,10.70
2018-01-29T11:50:59.226Z,10.70
2018-01-29T11:53:27.667Z,10.70
2018-01-29T11:55:55.434Z,10.70
2018-01-29T11:58:23.297Z,10.70
2018-01-29T12:00:51.163Z,10.70
2018-01-29T12:03:18.714Z,10.70
2018-01-29T12:05:46.433Z,10.70
2018-01-29T12:08:14.964Z,10.70
2018-01-29T12:10:43.039Z,10.70
2018-01-29T12:13:10.588Z,10.70
2018-01-29T12:15:39.384Z,10.80
2018-01-29T12:18:07.090Z,10.70
2018-01-29T12:20:35.578Z,10.70
2018-01-29T12:23:04.112Z,10.70
2018-01-29T12:25:32.085Z,10.70
2018-01-29T12:27:59.802Z,10.80
2018-01-29T12:30:27.442Z,10.80
2018-01-29T12:32:55.922Z,10.80
2018-01-29T12:35:24.464Z,10.80
2018-01-29T12:37:52.126Z,10.70
2018-01-29T12:40:19.992Z,10.70
2018-01-29T12:42:47.756Z,10.70
2018-01-29T12:45:15.421Z,10.70
2018-01-29T12:47:43.034Z,10.70
2018-01-29T12:50:10.843Z,10.70
2018-01-29T12:52:38.607Z,10.70
2018-01-29T12:55:06.580Z,10.70
2018-01-29T12:57:34.198Z,10.70
2018-01-29T13:00:01.815Z,10.70
2018-01-29T13:02:29.665Z,10.80
2018-01-29T13:04:57.237Z,10.70
2018-01-29T13:07:24.798Z,10.70
2018-01-29T13:09:52.648Z,10.70
2018-01-29T13:12:20.412Z,10.70
2018-01-29T13:14:48.279Z,10.70
2018-01-29T13:17:16.149Z,10.70
2018-01-29T13:19:43.807Z,10.70
2018-01-29T13:22:11.673Z,10.70
2018-01-29T13:24:39.205Z,10.60
2018-01-29T13:27:06.894Z,10.70
2018-01-29T13:29:34.658Z,10.70
2018-01-29T13:32:02.531Z,10.70
2018-01-29T13:34:30.258Z,10.70
2018-01-29T13:36:57.906Z,10.70
2018-01-29T13:39:25.545Z,10.60
2018-01-29T13:41:53.277Z,10.70
2018-01-29T13:44:20.935Z,10.60
2018-01-29T13:46:48.703Z,10.70
2018-01-29T13:49:16.249Z,10.70
2018-01-29T13:51:43.974Z,10.70
2018-01-29T13:54:12.507Z,10.70
2018-01-29T13:56:40.066Z,10.70
2018-01-29T13:59:07.733Z,10.70
2018-01-29T14:01:35.591Z,10.70
2018-01-29T14:04:03.110Z,10.70
2018-01-29T14:06:30.811Z,10.70
2018-01-29T14:08:58.415Z,10.60
2018-01-29T14:11:26.697Z,10.70
2018-01-29T14:13:55.230Z,10.70
2018-01-29T14:16:22.841Z,10.70
2018-01-29T14:18:51.162Z,10.70
2018-01-29T14:21:18.922Z,10.70
2018-01-29T14:23:46.701Z,10.70
2018-01-29T14:26:14.361Z,10.70
2018-01-29T14:28:42.020Z,10.70
2018-01-29T14:31:09.686Z,10.70
2018-01-29T14:33:37.451Z,10.70
2018-01-29T14:36:05.135Z,10.70
2018-01-29T14:38:33.079Z,10.70
2018-01-29T14:41:00.807Z,10.70
2018-01-29T14:43:28.603Z,10.70
2018-01-29T14:45:56.270Z,10.70
2018-01-29T14:48:24.066Z,10.70
2018-01-29T14:50:52.421Z,10.70
2018-01-29T14:53:20.274Z,10.70
2018-01-29T14:55:48.144Z,10.70
2018-01-29T14:58:15.806Z,10.70
2018-01-29T15:00:43.526Z,10.70
2018-01-29T15:03:11.540Z,10.70
2018-01-29T15:05:39.197Z,10.70
2018-01-29T15:08:07.064Z,10.70
2018-01-29T15:10:34.726Z,10.70
2018-01-29T15:13:02.426Z,10.70
2018-01-29T15:15:30.867Z,10.70
2018-01-29T15:17:58.454Z,10.60
2018-01-29T15:20:26.194Z,10.60
2018-01-29T15:22:53.898Z,10.70
2018-01-29T15:25:22.333Z,10.70
2018-01-29T15:27:50.038Z,10.70
2018-01-29T15:30:18.542Z,10.70
2018-01-29T15:32:46.131Z,10.70
2018-01-29T15:35:13.878Z,10.70
2018-01-29T15:37:41.567Z,10.70
2018-01-29T15:40:09.277Z,10.70
2018-01-29T15:42:37.808Z,10.60
2018-01-29T15:45:05.375Z,10.60
2018-01-29T15:47:33.233Z,10.70
2018-01-29T15:50:00.899Z,10.70
2018-01-29T15:52:28.868Z,10.70
2018-01-29T15:54:56.570Z,10.70
2018-01-29T15:57:25.007Z,10.70
2018-01-29T15:59:52.876Z,10.60
2018-01-29T16:02:20.539Z,10.70
2018-01-29T16:04:48.088Z,10.60
2018-01-29T16:07:15.755Z,10.70
2018-01-29T16:09:43.462Z,10.70
2018-01-29T16:12:11.966Z,10.70
2018-01-29T16:14:39.666Z,10.70
2018-01-29T16:17:07.328Z,10.70
2018-01-29T16:19:34.873Z,10.70
2018-01-29T16:22:02.851Z,10.70
2018-01-29T16:24:30.722Z,10.70
2018-01-29T16:26:58.285Z,10.70
2018-01-29T16:29:25.802Z,10.70
2018-01-29T16:31:53.420Z,10.70
2018-01-29T16:34:21.057Z,10.70
2018-01-29T16:36:48.821Z,10.70
2018-01-29T16:39:16.589Z,10.70
2018-01-29T16:41:44.314Z,10.70
2018-01-29T16:44:12.431Z,10.70
2018-01-29T16:46:39.981Z,10.70
2018-01-29T16:49:07.646Z,10.70
2018-01-29T16:51:35.411Z,10.70
2018-01-29T16:54:03.129Z,10.70
2018-01-29T16:56:31.040Z,10.60
2018-01-29T16:58:58.698Z,10.70
2018-01-29T17:01:26.465Z,10.70
2018-01-29T17:03:54.125Z,10.70
2018-01-29T17:06:22.254Z,10.70
2018-01-29T17:08:49.962Z,10.70
2018-01-29T17:11:17.825Z,10.70
2018-01-29T17:13:45.696Z,10.70
2018-01-29T17:16:13.306Z,10.70
2018-01-29T17:18:41.774Z,10.70
2018-01-29T17:21:10.266Z,10.70
2018-01-29T17:23:38.898Z,10.70
2018-01-29T17:26:06.456Z,10.70
2018-01-29T17:28:34.123Z,10.70
2018-01-29T17:31:01.783Z,10.70
2018-01-29T17:33:29.510Z,10.70
2018-01-29T17:35:57.616Z,10.70
2018-01-29T17:38:25.322Z,10.70
2018-01-29T17:40:53.865Z,10.70
2018-01-29T17:43:21.566Z,10.70
2018-01-29T17:45:50.070Z,10.70
2018-01-29T17:48:17.771Z,10.60
2018-01-29T17:50:45.429Z,10.60
2018-01-29T17:53:13.134Z,10.70
2018-01-29T17:55:41.680Z,10.70
2018-01-29T17:58:09.381Z,10.70
2018-01-29T18:00:37.817Z,10.70
2018-01-29T18:03:05.382Z,10.70
2018-01-29T18:05:32.961Z,10.70
2018-01-29T18:08:00.677Z,10.70
2018-01-29T18:10:28.467Z,10.60
2018-01-29T18:12:56.278Z,10.70
2018-01-29T18:15:24.777Z,10.70
2018-01-29T18:17:52.390Z,10.60
2018-01-29T18:20:20.282Z,10.60
2018-01-29T18:22:48.864Z,10.60
2018-01-29T18:25:17.418Z,10.60
2018-01-29T18:27:45.138Z,10.60
2018-01-29T18:30:12.810Z,10.60
2018-01-29T18:32:40.405Z,10.60
2018-01-29T18:35:07.958Z,10.60
2018-01-29T18:37:35.986Z,10.70
2018-01-29T18:40:03.729Z,10.60
2018-01-29T18:42:32.250Z,10.60
2018-01-29T18:44:59.795Z,10.60
2018-01-29T18:47:28.107Z,10.60
2018-01-29T18:49:55.782Z,10.60
2018-01-29T18:52:23.457Z,10.60
2018-01-29T18:54:51.325Z,10.60
2018-01-29T18:57:19.774Z,10.60
2018-01-29T18:59:47.527Z,10.60
2018-01-29T19:02:15.422Z,10.70
2018-01-29T19:04:43.217Z,10.70
2018-01-29T19:07:11.669Z,10.70
2018-01-29T19:09:39.426Z,10.70
2018-01-29T19:12:07.194Z,10.70
2018-01-29T19:14:35.058Z,10.70
2018-01-29T19:17:02.649Z,10.70
2018-01-29T19:19:31.010Z,10.60
2018-01-29T19:21:58.565Z,10.60
2018-01-29T19:24:26.222Z,10.70
2018-01-29T19:26:54.109Z,10.60
2018-01-29T19:29:22.750Z,10.60
2018-01-29T19:31:50.377Z,10.50
2018-01-29T19:34:18.171Z,10.60
2018-01-29T19:36:46.002Z,10.60
2018-01-29T19:39:13.838Z,10.60
2018-01-29T19:41:41.746Z,10.60
2018-01-29T19:44:09.503Z,10.50
2018-01-29T19:46:37.293Z,10.50
2018-01-29T19:49:05.150Z,10.50
2018-01-29T19:51:33.010Z,10.50
2018-01-29T19:54:00.650Z,10.50
2018-01-29T19:56:28.205Z,10.50
2018-01-29T19:58:56.100Z,10.50
2018-01-29T20:01:23.998Z,10.50
2018-01-29T20:03:51.609Z,10.50
2018-01-29T20:06:19.510Z,10.50
2018-01-29T20:08:47.313Z,10.50
2018-01-29T20:11:14.954Z,10.50
2018-01-29T20:13:42.514Z,10.50
2018-01-29T20:16:10.286Z,10.60
2018-01-29T20:18:38.075Z,10.50
2018-01-29T20:21:06.736Z,10.60
2018-01-29T20:23:34.487Z,10.50
2018-01-29T20:26:02.346Z,10.60
2018-01-29T20:28:30.258Z,10.60
2018-01-29T20:30:58.702Z,10.60
2018-01-29T20:33:26.382Z,10.50
2018-01-29T20:35:54.222Z,10.50
2018-01-29T20:38:22.122Z,10.50
2018-01-29T20:40:49.638Z,10.50
2018-01-29T20:43:17.241Z,10.50
2018-01-29T20:45:45.146Z,10.50
2018-01-29T20:48:12.946Z,10.50
2018-01-29T20:50:40.533Z,10.50
2018-01-29T20:53:08.182Z,10.50
2018-01-29T20:55:35.733Z,10.50
2018-01-29T20:58:03.502Z,10.50
2018-01-29T21:00:31.197Z,10.50
2018-01-29T21:02:59.861Z,10.50
2018-01-29T21:05:27.493Z,10.50
2018-01-29T21:07:55.406Z,10.50
2018-01-29T21:10:23.735Z,10.50
2018-01-29T21:12:51.326Z,10.50
2018-01-29T21:15:19.894Z,10.50
2018-01-29T21:17:47.627Z,10.50
2018-01-29T21:20:15.361Z,10.50
2018-01-29T21:22:43.929Z,10.40
2018-01-29T21:25:12.234Z,10.50
2018-01-29T21:27:40.174Z,10.40
2018-01-29T21:30:08.694Z,10.50
2018-01-29T21:32:36.452Z,10.40
2018-01-29T21:35:04.342Z,10.50
2018-01-29T21:37:32.007Z,10.50
2018-01-29T21:39:59.690Z,10.50
2018-01-29T21:42:27.377Z,10.50
2018-01-29T21:44:55.934Z,10.50
2018-01-29T21:47:23.754Z,10.50
2018-01-29T21:49:51.684Z,10.50
2018-01-29T21:52:19.299Z,10.50
2018-01-29T21:54:47.207Z,10.50
2018-01-29T21:57:15.011Z,10.50
2018-01-29T21:59:42.717Z,10.50
2018-01-29T22:02:10.481Z,10.50
2018-01-29T22:04:38.018Z,10.50
2018-01-29T22:07:06.346Z,10.50
2018-01-29T22:09:34.174Z,10.50
2018-01-29T22:12:01.873Z,10.40
2018-01-29T22:14:29.546Z,10.50
2018-01-29T22:16:57.982Z,10.50
2018-01-29T22:19:25.534Z,10.50
2018-01-29T22:21:53.078Z,10.50
2018-01-29T22:24:20.856Z,10.50
2018-01-29T22:26:49.174Z,10.40
2018-01-29T22:29:17.646Z,10.50
2018-01-29T22:31:45.338Z,10.40
2018-01-29T22:34:13.243Z,10.40
2018-01-29T22:36:41.014Z,10.30
2018-01-29T22:39:08.776Z,10.30
2018-01-29T22:41:36.847Z,10.30
2018-01-29T22:44:04.546Z,10.30
2018-01-29T22:46:32.989Z,10.20
2018-01-29T22:49:00.554Z,10.20
2018-01-29T22:51:28.879Z,10.20
2018-01-29T22:53:57.211Z,10.20
2018-01-29T22:56:24.801Z,10.10
2018-01-29T22:58:53.131Z,10.10
2018-01-29T23:01:20.713Z,10.10
2018-01-29T23:03:48.262Z,10.10
2018-01-29T23:06:16.584Z,10.00
2018-01-29T23:08:44.908Z,10.00
2018-01-29T23:11:12.637Z,10.00
2018-01-29T23:13:40.438Z,9.90
2018-01-29T23:16:08.002Z,10.00
2018-01-29T23:18:35.663Z,10.00
2018-01-29T23:21:03.525Z,9.90
2018-01-29T23:23:31.126Z,9.90
2018-01-29T23:25:58.951Z,9.80
2018-01-29T23:28:26.661Z,9.80
2018-01-29T23:30:54.687Z,9.80
2018-01-29T23:33:22.273Z,9.80
2018-01-29T23:35:49.942Z,9.80
2018-01-29T23:38:18.526Z,9.70
2018-01-29T23:40:46.151Z,9.70
2018-01-29T23:43:13.878Z,9.70
2018-01-29T23:45:41.506Z,9.70
2018-01-29T23:48:09.194Z,9.70
2018-01-29T23:50:36.826Z,9.80
2018-01-29T23:53:04.410Z,9.80
2018-01-29T23:55:32.698Z,9.80
2018-01-29T23:58:00.399Z,9.80
